x

Lake Nipissing (45152) Wave Buoy

10:00am - Tue 19th Sep 2017 All times are CDT. -5 hours from GMT.

  • Sig Wave height 1.3ft
  • Peak Period 3s
  • Wind
    13mph, 18mph gusts
  • Sea Temp 66°f
  • Air Temp 62°f
  • Sea Pressure 1019.3mb
  • Lake Nipissing
  • Lake Nipissing

More Historic Weather Station data

Upgrade to MSW Pro to gain access to the past 30 days of data for over 8000 Wavebouys and Weather Stations around the globe.

Join

Comparision Forecast

View Surf forecast
   
Tue 09/19 10:00am 1.3ft 3s 13 18 mph 1019.3mb 66f 62f
9:00am 1ft 2s 13 18 mph 1019.8mb 66f 61f
8:00am 0.7ft 2s 13 16 mph 1020.2mb 66f 60f
7:00am 0.7ft 2s 11 16 mph 1019.9mb 66f 58f
6:00am 0.7ft 2s 11 13 mph 1019.5mb 66f 58f
5:00am 0.7ft 2s 11 13 mph 1019.3mb 66f 58f
4:00am 0.3ft 2s 9 11 mph 1018.9mb 66f 59f
3:00am  -  2s 9 11 mph 1018.4mb 66f 60f
2:00am  -  3s 4 7 mph 1018.4mb 66f 61f
1:00am  -  3s 4 7 mph 1018.7mb 66f 61f
12:00am 0.3ft 2s 7 9 mph 1018.6mb 66f 62f
Mon 09/18 11:00pm 0.3ft 2s 4 4 mph 1018.7mb 66f 62f
10:00pm 0.3ft 2s 4 7 mph 1018.6mb 66f 62f
9:00pm 0.7ft 2s 7 7 mph 1019mb 66f 62f
8:00pm 0.7ft 2s 11 13 mph 1018.8mb 66f 62f
7:00pm 0.3ft 2s 9 11 mph 1018.6mb 67f 62f
6:00pm 0.3ft 2s 9 13 mph 1018.3mb 67f 63f
5:00pm 0.3ft 2s 9 11 mph 1018.2mb 67f 64f
4:00pm 0.3ft 2s 9 13 mph 1017.8mb 67f 64f
3:00pm 0.3ft 2s 9 11 mph 1017.7mb 67f 64f
2:00pm 0.3ft 2s 9 11 mph 1017.8mb 67f 64f
1:00pm 0.3ft 2s 11 13 mph 1017.6mb 67f 65f
12:00pm  -  3s 9 11 mph 1017.6mb 67f 65f
11:00am  -  2s 4 4 mph 1017.7mb 67f 66f
10:00am  -  2s 7 7 mph 1017.6mb 67f 67f
9:00am  -  4s 4 7 mph 1017.5mb 67f 66f
8:00am  -  3s 7 7 mph 1017.6mb 67f 66f
7:00am  -  3s 7 7 mph 1017.4mb 67f 66f
6:00am  -  2s 4 7 mph 1017.1mb 67f 66f
5:00am  -  4s 4 4 mph 1016.7mb 67f 67f
4:00am  -  3s 7 9 mph 1016.4mb 67f 67f
3:00am  -  3s 4 4 mph 1016.1mb 67f 67f
2:00am  -  3s 4 4 mph 1016.4mb 67f 67f
1:00am  -  3s 7 7 mph 1016.5mb 67f 68f
12:00am 0.3ft 3s 9 11 mph 1016.5mb 67f 69f
Sun 09/17 11:00pm  -  4s  -  4 mph 1016.9mb 67f 68f
10:00pm  -  3s 7 7 mph 1016.6mb 67f 68f
9:00pm  -  2s 4 7 mph 1016.7mb 67f 68f
8:00pm  -  2s 4 7 mph 1017mb 67f 68f
7:00pm 0.3ft 2s 7 7 mph 1016.9mb 67f 70f
6:00pm 0.3ft 2s 7 9 mph 1016.8mb 67f 72f
5:00pm 0.7ft 2s 11 13 mph 1016.9mb 67f 74f
4:00pm 0.3ft 2s 11 16 mph 1016.7mb 67f 75f
3:00pm 0.3ft 2s 9 16 mph 1017mb 67f 75f
2:00pm 0.3ft 2s 11 16 mph 1017.4mb 67f 75f
1:00pm 0.3ft 2s 9 11 mph 1017.9mb 67f 74f
12:00pm 0.3ft 2s 11 13 mph 1018.4mb 67f 74f
11:00am 0.3ft 2s 9 13 mph 1018.7mb 67f 73f
10:00am 0.7ft 2s 13 18 mph 1018.9mb 66f 71f
9:00am 0.3ft 2s 13 18 mph 1019.2mb 66f 69f
8:00am 0.7ft 2s 11 13 mph 1019.3mb 66f 67f
7:00am 0.7ft 2s 13 16 mph 1019.3mb 66f 65f
6:00am 0.3ft 3s 13 16 mph 1019.4mb 66f 65f
5:00am 0.3ft 2s 9 11 mph 1019.2mb 67f 66f
4:00am 0.3ft 3s 7 9 mph 1019mb 67f 65f
3:00am 0.3ft 3s 7 9 mph 1019mb 67f 66f
2:00am  -  3s 9 11 mph 1019mb 67f 66f
1:00am 0.3ft 3s 4 7 mph 1019.1mb 67f 66f
12:00am  -  2s 4 7 mph 1019.2mb 67f 66f
Sat 09/16 11:00pm  -  2s 4 7 mph 1019.4mb 67f 66f
10:00pm  -  2s 7 7 mph 1019.7mb 67f 67f
9:00pm  -  2s 7 9 mph 1020.1mb 67f 68f
8:00pm  -  2s 4 4 mph 1020.2mb 67f 68f
7:00pm 0.3ft 2s 7 7 mph 1020mb 67f 70f
6:00pm 0.3ft 2s 7 9 mph 1019.9mb 67f 72f
5:00pm 0.7ft 2s 11 16 mph 1019.6mb 67f 74f
4:00pm 0.3ft 2s 13 16 mph 1019.3mb 68f 75f
3:00pm 0.3ft 2s 11 13 mph 1019.7mb 68f 75f
2:00pm 0.3ft 2s 11 13 mph 1019.8mb 68f 75f
1:00pm 0.3ft 2s 11 13 mph 1020.2mb 68f 75f
12:00pm  -  3s 4 4 mph 1020.7mb 68f 69f
11:00am  -  2s 4 7 mph 1021mb 68f 68f
10:00am  -  2s 7 7 mph 1021.4mb 67f 66f
9:00am  -  3s 4 4 mph 1021.6mb 67f 67f
8:00am  -  3s 2 2 mph 1021.6mb 67f 65f
7:00am  -  3s 4 4 mph 1021.2mb 67f 65f
6:00am  -  3s 2 4 mph 1021mb 67f 64f
5:00am  -  3s  -  2 mph 1020.7mb 67f 65f
4:00am  -  3s 4 7 mph 1020.3mb 67f 64f
3:00am  -  2s 2 4 mph 1020.6mb 67f 65f
2:00am  -  3s 4 7 mph 1020.6mb 67f 65f
1:00am  -  3s 4 7 mph 1020.5mb 67f 65f
12:00am  -  3s 7 9 mph 1020.4mb 67f 65f
Fri 09/15 11:00pm 0.3ft 2s 4 7 mph 1020.1mb 67f 65f
10:00pm 0.3ft 2s 7 9 mph 1020.4mb 67f 66f
9:00pm  -  2s 9 11 mph 1019.5mb 67f 67f
8:00pm  -  3s 4 7 mph 1019.1mb 67f 68f
7:00pm  -  2s 7 7 mph 1018.9mb 67f 69f
6:00pm 0.3ft 3s 4 7 mph 1018.2mb 67f 70f
5:00pm 0.3ft 3s 11 13 mph 1017.7mb 68f 73f